EDT,Max TemperatureF,Mean TemperatureF,Min TemperatureF,Max Dew PointF,MeanDew PointF,Min DewpointF,Max Humidity, Mean Humidity, Min Humidity, Max Sea Level PressureIn, Mean Sea Level PressureIn, Min Sea Level PressureIn, Max VisibilityMiles, Mean VisibilityMiles, Min VisibilityMiles, Max Wind SpeedMPH, Mean Wind SpeedMPH, Max Gust SpeedMPH,PrecipitationIn, CloudCover, Events, WindDirDegrees
2013-8-1,71,66,60,63,59,55,94,79,60,29.97,29.91,29.86,10,9,2,15,8,21,0.06,4,,246
2013-8-2,71,64,57,61,56,54,100,76,53,29.96,29.94,29.91,10,7,0,16,7,23,0.00,6,,220
2013-8-3,69,63,57,61,55,48,94,72,46,30.01,29.97,29.91,10,10,5,16,8,21,0.03,3,,283
2013-8-4,66,60,53,55,52,46,88,75,56,30.12,30.06,30.01,10,10,10,16,7,22,0.00,4,,310
2013-8-5,66,57,48,52,48,43,93,70,46,30.16,30.11,30.06,10,10,5,8,3,,0.00,1,,267
2013-8-6,75,63,51,57,53,50,94,71,47,30.08,30.05,30.02,10,10,2,10,4,,0.00,4,,174
2013-8-7,77,68,60,66,61,57,94,79,69,30.03,30.00,29.93,10,10,5,17,10,23,0.00,4,,181
2013-8-8,78,71,64,70,67,61,100,89,74,30.03,29.99,29.95,10,7,0,13,7,18,0.31,7,Thunderstorm,189
2013-8-9,71,65,57,68,61,52,100,84,60,30.03,29.96,29.91,10,5,0,12,4,,0.00,5,Thunderstorm,296
2013-8-10,69,62,55,55,52,46,88,68,43,30.15,30.11,30.03,10,10,10,17,7,21,0.00,1,,287
2013-8-11,71,61,51,55,51,48,94,67,46,30.18,30.14,30.09,10,10,10,9,5,,0.00,1,,314
2013-8-12,71,63,55,63,57,50,94,83,57,30.11,30.04,29.91,10,10,5,12,4,,0.02,5,,194
2013-8-13,64,58,51,63,54,41,100,81,59,29.96,29.88,29.81,10,8,0,18,8,25,0.75,7,Thunderstorm,274
2013-8-14,62,56,51,52,47,43,94,73,52,30.15,30.04,29.94,10,10,5,16,9,22,0.01,5,,296
2013-8-15,66,56,46,52,50,45,94,77,60,30.20,30.17,30.13,10,9,0,14,5,18,0.00,2,,243
2013-8-16,69,58,48,54,49,46,100,71,43,30.24,30.20,30.16,10,8,0,7,4,,0.00,1,,130
2013-8-17,73,64,55,55,52,48,82,66,50,30.32,30.28,30.25,10,10,9,7,3,,0.00,1,,108
2013-8-18,71,64,57,57,55,52,88,72,57,30.28,30.24,30.17,10,10,10,12,3,17,0.00,1,,166
2013-8-19,71,65,59,63,59,55,94,83,69,30.19,30.14,30.11,10,9,3,9,4,,0.00,5,,223
2013-8-20,78,66,53,64,57,52,100,77,50,30.21,30.18,30.13,10,7,0,10,5,16,0.00,2,,219
2013-8-21,78,68,57,63,59,55,94,74,47,30.24,30.18,30.11,10,8,2,8,4,,0.00,1,,207
2013-8-22,78,69,60,68,63,59,94,81,61,30.12,30.06,30.01,10,8,2,17,7,25,0.00,2,,246
2013-8-23,73,66,59,64,54,48,94,66,41,30.23,30.13,30.05,10,10,2,13,6,17,0.00,1,,13
2013-8-24,73,63,53,54,49,46,88,63,41,30.37,30.32,30.24,10,10,8,9,3,,0.00,0,,67
2013-8-25,77,64,51,57,53,48,88,65,44,30.39,30.32,30.23,10,10,10,14,5,18,0.00,0,,197
2013-8-26,80,71,62,64,60,55,94,75,54,30.26,30.13,30.03,10,9,3,18,9,26,0.25,3,,220
2013-8-27,80,72,64,72,66,63,100,88,65,30.03,29.99,29.93,10,5,0,14,6,17,0.00,5,,220
2013-8-28,77,72,66,70,68,64,100,91,69,30.01,29.93,29.90,10,6,0,9,5,,0.24,6,,91
2013-8-29,80,72,64,66,64,63,94,78,54,30.10,30.07,30.00,10,10,7,10,6,,0.00,1,,29
2013-8-30,80,70,60,66,64,59,100,80,58,30.07,29.97,29.84,10,7,0,14,5,18,0.00,3,,201
2013-8-31,77,72,66,70,66,63,94,86,73,29.90,29.85,29.81,10,7,2,10,5,,0.01,6,,235